Latest Weather Observations for Portland Airport

IDV60801

Issued at 12:05 pm EST Thursday 24 July 2014 (issued every 30 minutes, with the page automatically refreshed every 10 minutes)

About weather observations | Map of weather stations | Latest weather observations for VIC | Other Formats
Station Details ID: 090171 Name: CASHMORE AIRPORT Lat: -38.31 Lon: 141.47 Height: 80.9 m
Data from the previous 72 hours. | See also: Recent months at Portland Airport
Date/Time
EST
Temp
°C
App
Temp
°C
Dew
Point
Rel
Hum
%
Delta-T
°C
Wind Press
QNH
hPa
Press
MSL
hPa
Rain
since 9 am
mm
Dir
 
Spd
km/h
Gust
km/h
Spd
kts
Gust
kts
24/12:00pm 9.8 6.4 9.3 97 0.2 E 17 26 9 14 1011.2 1011.4 3.0
24/11:30am 9.3 6.2 9.0 98 0.1 E 15 22 8 12 1011.8 - 3.0
24/11:01am 8.9 5.7 8.6 98 0.1 E 15 22 8 12 1012.2 - 3.0
24/11:00am 8.9 5.7 8.6 98 0.1 E 15 22 8 12 1012.3 - 3.0
24/10:30am 8.8 6.0 8.5 98 0.1 E 13 19 7 10 1012.6 - 2.6
24/10:00am 8.7 6.2 8.4 98 0.1 ENE 11 17 6 9 1013.0 - 1.4
24/09:42am 8.7 6.2 8.3 97 0.2 ENE 11 19 6 10 1013.1 - 1.0
24/09:30am 8.6 6.1 8.2 97 0.2 ENE 11 17 6 9 1013.2 - 0.6
24/09:00am 8.4 5.5 8.0 97 0.2 ENE 13 19 7 10 1013.0 1013.1 4.2
24/08:36am 8.2 5.6 7.8 97 0.2 ENE 11 19 6 10 1013.0 - 3.8
24/08:30am 8.2 5.2 7.8 97 0.2 ENE 13 19 7 10 1012.8 - 3.6
24/08:19am 8.0 5.4 7.6 97 0.2 E 11 19 6 10 1012.8 - 3.4
24/08:00am 7.8 4.7 7.4 97 0.2 E 13 17 7 9 1012.8 - 3.2
24/07:30am 7.8 5.4 7.2 96 0.3 ENE 9 15 5 8 1013.0 - 2.6
24/07:00am 7.7 4.9 7.1 96 0.3 ENE 11 17 6 9 1012.8 - 2.0
24/06:30am 7.1 4.2 6.4 95 0.3 E 11 17 6 9 1012.7 - 1.8
24/06:00am 6.8 3.8 5.9 94 0.4 E 11 15 6 8 1012.6 1012.8 1.4
24/05:30am 6.8 3.8 5.9 94 0.4 ENE 11 13 6 7 1013.0 - 1.0
24/05:00am 6.8 4.5 5.7 93 0.5 ENE 7 9 4 5 1013.2 - 0.8
24/04:30am 6.7 4.3 5.2 90 0.7 ENE 7 9 4 5 1013.7 - 0.4
24/04:00am 6.6 4.1 4.9 89 0.7 NE 7 11 4 6 1013.8 - 0.4
24/03:30am 6.5 4.6 5.1 91 0.6 ENE 4 6 2 3 1013.8 - 0.4
24/03:00am 6.7 4.2 5.0 89 0.7 ENE 7 11 4 6 1014.0 1014.1 0.2
24/02:30am 6.9 4.0 4.6 85 1.0 NE 9 13 5 7 1014.3 - 0.0
24/02:00am 7.0 4.4 4.3 83 1.2 ENE 7 13 4 7 1014.5 - 0.0
24/01:30am 7.2 4.2 4.3 82 1.3 ENE 9 13 5 7 1014.8 - 0.0
24/01:00am 7.2 4.3 4.5 83 1.2 ENE 9 13 5 7 1015.1 - 0.0
24/12:30am 7.4 4.9 4.7 83 1.2 ENE 7 11 4 6 1015.3 - 0.0
24/12:00am 7.1 4.2 4.8 85 1.0 NE 9 13 5 7 1015.5 1015.7 0.0
 
Date/Time
EST
Temp
°C
App
Temp
°C
Dew
Point
Rel
Hum
%
Delta-T
°C
Wind Press
QNH
hPa
Press
MSL
hPa
Rain
since 9 am
mm
Dir
 
Spd
km/h
Gust
km/h
Spd
kts
Gust
kts
23/11:30pm 6.6 4.2 4.4 86 1.0 ENE 6 7 3 4 1015.7 - 0.0
23/11:00pm 6.8 4.4 4.3 84 1.1 ENE 6 9 3 5 1015.8 - 0.0
23/10:30pm 7.0 4.0 4.3 83 1.2 NE 9 11 5 6 1016.1 - 0.0
23/10:00pm 6.4 3.9 4.6 88 0.8 ENE 7 9 4 5 1016.4 - 0.0
23/09:30pm 6.4 3.9 4.6 88 0.8 ENE 7 9 4 5 1016.7 - 0.0
23/09:00pm 6.6 4.7 4.8 88 0.8 NE 4 9 2 5 1017.0 1017.2 0.0
23/08:30pm 7.1 4.9 5.3 88 0.8 NE 6 7 3 4 1017.2 - 0.0
23/08:00pm 7.3 5.0 5.6 89 0.8 NE 7 9 4 5 1017.2 - 0.0
23/07:30pm 7.6 5.6 6.1 90 0.7 NE 6 9 3 5 1017.3 - 0.0
23/07:00pm 7.9 5.9 6.2 89 0.8 NE 6 9 3 5 1017.4 - 0.0
23/06:30pm 8.0 5.8 6.1 88 0.9 NE 7 9 4 5 1017.4 - 0.0
23/06:00pm 8.4 6.2 6.4 87 0.9 NE 7 11 4 6 1017.5 1017.7 0.0
23/05:30pm 8.8 6.6 6.4 85 1.1 NE 7 11 4 6 1017.5 - 0.0
23/05:00pm 9.3 7.2 6.6 83 1.3 NE 7 11 4 6 1017.7 - 0.0
23/04:30pm 9.6 6.7 6.5 81 1.4 NE 11 15 6 8 1017.8 - 0.0
23/04:00pm 9.9 6.9 6.1 77 1.8 NNE 11 15 6 8 1017.7 - 0.0
23/03:30pm 10.1 7.1 6.1 76 1.9 NNE 11 17 6 9 1017.9 - 0.0
23/03:00pm 10.0 6.5 5.6 74 2.0 NNE 13 19 7 10 1018.0 1018.2 0.0
23/02:30pm 10.0 7.0 5.8 75 1.9 NNE 11 19 6 10 1017.9 - 0.0
23/02:00pm 10.1 6.3 5.7 74 2.0 NNE 15 20 8 11 1018.2 - 0.0
23/01:30pm 10.2 6.9 6.5 78 1.7 N 13 17 7 9 1018.7 - 0.0
23/01:00pm 9.6 6.2 5.8 77 1.7 NNE 13 17 7 9 1019.0 - 0.0
23/12:30pm 9.2 6.2 5.8 79 1.6 NNE 11 17 6 9 1019.7 - 0.0
23/12:00pm 8.9 5.9 6.2 83 1.2 NNE 11 15 6 8 1020.2 1020.4 0.0
23/11:30am 7.8 5.2 6.3 90 0.7 NNE 9 13 5 7 1021.0 - 0.0
23/11:00am 6.8 4.1 5.7 93 0.5 NNE 9 13 5 7 1021.4 - 0.0
23/10:30am 5.9 3.4 5.0 94 0.4 N 7 11 4 6 1021.6 - 0.0
23/10:00am 5.0 2.0 4.3 95 0.3 NNE 9 13 5 7 1021.9 - 0.0
23/09:30am 4.5 0.6 3.6 94 0.4 N 13 15 7 8 1022.2 - 0.0
23/09:00am 4.9 1.1 4.0 94 0.4 N 13 15 7 8 1022.3 1022.5 0.2
23/08:30am 4.2 0.7 3.5 95 0.3 N 11 15 6 8 1022.2 - 0.2
23/08:00am 3.7 0.1 3.1 96 0.2 N 11 13 6 7 1022.1 - 0.2
23/07:30am 3.8 0.6 3.2 96 0.2 N 9 11 5 6 1022.1 - 0.2
23/07:00am 4.2 0.8 3.8 97 0.2 N 11 13 6 7 1022.1 - 0.2
23/06:30am 3.7 0.2 3.3 97 0.2 N 11 13 6 7 1022.2 - 0.0
23/06:00am 3.9 0.0 3.6 98 0.1 N 13 15 7 8 1022.1 1022.3 0.0
23/05:30am 3.8 0.3 3.5 98 0.1 N 11 13 6 7 1022.2 - 0.0
23/05:00am 3.2 -0.8 2.9 98 0.1 N 13 15 7 8 1022.4 - 0.0
23/04:30am 3.6 -0.3 3.3 98 0.1 N 13 15 7 8 1022.2 - 0.0
23/04:00am 3.5 0.3 3.2 98 0.1 N 9 11 5 6 1022.1 - 0.0
23/03:30am 3.2 0.0 2.9 98 0.1 N 9 11 5 6 1022.2 - 0.0
23/03:23am 3.6 0.8 3.3 98 0.1 N 7 11 4 6 1022.2 - 0.0
23/03:00am 4.1 0.7 3.8 98 0.1 N 11 13 6 7 1022.3 1022.5 0.0
23/02:47am 4.8 1.9 4.5 98 0.1 NE 9 13 5 7 1022.7 - 0.0
23/02:30am 5.2 2.3 4.9 98 0.1 NE 9 11 5 6 1022.8 - 0.0
23/02:00am 4.6 1.6 4.3 98 0.1 NE 9 13 5 7 1022.9 - 0.0
23/01:30am 2.6 1.0 2.2 97 0.2 CALM 0 0 0 0 1022.9 - 0.0
23/01:00am 4.2 1.2 3.9 98 0.1 ENE 9 9 5 5 1022.9 - 0.0
23/12:30am 3.3 1.0 2.7 96 0.2 ENE 4 9 2 5 1023.2 - 0.0
23/12:00am 3.5 0.8 2.9 96 0.2 ENE 6 7 3 4 1023.7 1023.9 0.0
 
Date/Time
EST
Temp
°C
App
Temp
°C
Dew
Point
Rel
Hum
%
Delta-T
°C
Wind Press
QNH
hPa
Press
MSL
hPa
Rain
since 9 am
mm
Dir
 
Spd
km/h
Gust
km/h
Spd
kts
Gust
kts
22/11:30pm 3.6 2.1 2.9 95 0.3 CALM 0 0 0 0 1024.1 - 0.0
22/11:00pm 4.5 3.1 3.8 95 0.3 CALM 0 6 0 3 1024.4 - 0.0
22/10:30pm 5.0 2.0 4.3 95 0.3 ENE 9 11 5 6 1024.3 - 0.0
22/10:00pm 5.4 2.5 4.8 96 0.3 ENE 9 11 5 6 1024.4 - 0.0
22/09:30pm 5.3 2.8 4.9 97 0.2 ENE 7 11 4 6 1024.0 - 0.0
22/09:00pm 4.8 2.2 4.2 96 0.3 ENE 7 9 4 5 1023.6 1023.8 0.0
22/08:30pm 4.4 3.0 3.5 94 0.4 CALM 0 6 0 3 1023.9 - 0.0
22/08:00pm 5.0 3.7 4.1 94 0.4 CALM 0 0 0 0 1023.9 - 0.0
22/07:30pm 5.6 4.4 4.6 93 0.4 CALM 0 0 0 0 1024.0 - 0.0
22/07:00pm 6.0 4.4 4.5 90 0.6 E 2 6 1 3 1024.0 - 0.0
22/06:30pm 7.7 5.5 5.5 86 1.0 E 6 7 3 4 1023.9 - 0.0
22/06:00pm 8.5 6.2 5.8 83 1.2 E 7 7 4 4 1023.8 1024.0 0.0
22/05:30pm 9.8 7.6 6.3 79 1.6 E 7 9 4 5 1023.6 - 0.0
22/05:00pm 11.0 8.5 6.7 75 2.0 E 9 13 5 7 1023.5 - 0.0
22/04:30pm 11.8 9.3 6.5 70 2.5 E 9 11 5 6 1023.5 - 0.0
22/04:00pm 12.5 10.1 6.8 68 2.7 E 9 15 5 8 1023.5 - 0.0
22/03:30pm 12.7 10.3 7.2 69 2.7 E 9 13 5 7 1023.6 - 0.0
22/03:00pm 13.2 11.2 7.2 67 2.9 E 7 13 4 7 1023.5 1023.7 0.0
22/02:30pm 13.6 11.7 6.9 64 3.3 ENE 6 11 3 6 1023.6 - 0.0
22/02:00pm 13.1 11.0 6.7 65 3.1 ESE 7 11 4 6 1023.7 - 0.0
22/01:30pm 12.9 10.8 6.7 66 3.0 E 7 13 4 7 1024.0 - 0.0
22/01:00pm 12.6 10.4 6.4 66 3.0 ENE 7 13 4 7 1024.5 - 0.0
22/12:30pm 12.3 10.1 6.1 66 2.9 NNE 7 11 4 6 1025.0 - 0.0
22/12:00pm 12.2 10.4 8.1 76 2.0 NNE 7 11 4 6 1025.4 1025.7 0.0
22/11:30am 11.5 9.5 8.5 82 1.5 NNE 9 13 5 7 1025.9 - 0.0
22/11:00am 10.3 8.2 8.2 87 1.0 NNE 9 13 5 7 1026.1 - 0.0
22/10:30am 8.0 5.2 6.9 93 0.5 N 11 13 6 7 1026.1 - 0.0
22/10:00am 6.8 3.7 5.6 92 0.5 N 11 15 6 8 1026.2 - 0.0
22/09:30am 5.6 2.8 5.0 96 0.3 N 9 13 5 7 1026.2 - 0.0
22/09:00am 4.5 1.1 3.9 96 0.2 N 11 13 6 7 1026.0 1026.2 0.4
22/08:30am 4.3 0.9 3.9 97 0.2 N 11 15 6 8 1025.7 - 0.4
22/08:00am 3.4 -0.6 3.0 97 0.2 N 13 15 7 8 1025.5 - 0.4
22/07:30am 2.8 -0.9 2.4 97 0.2 N 11 13 6 7 1025.4 - 0.4
22/07:00am 2.7 -1.4 2.3 97 0.2 N 13 15 7 8 1025.1 - 0.2
22/06:30am 2.8 -0.9 2.4 97 0.2 N 11 13 6 7 1024.8 - 0.2
22/06:00am 2.8 -0.9 2.4 97 0.2 N 11 13 6 7 1024.5 1024.7 0.2
22/05:30am 2.9 -0.8 2.6 98 0.1 N 11 15 6 8 1024.4 - 0.2
22/05:00am 3.1 -0.5 2.8 98 0.1 N 11 13 6 7 1024.4 - 0.2
22/04:30am 3.0 -0.3 2.6 97 0.2 N 9 11 5 6 1024.4 - 0.2
22/04:00am 3.4 0.6 3.0 97 0.2 N 7 11 4 6 1024.2 - 0.2
22/03:30am 3.8 0.6 3.2 96 0.2 N 9 13 5 7 1024.2 - 0.2
22/03:00am 3.9 0.0 3.3 96 0.2 N 13 15 7 8 1024.3 1024.5 0.2
22/02:30am 4.1 1.0 3.5 96 0.2 N 9 11 5 6 1024.2 - 0.2
22/02:00am 4.9 1.6 4.3 96 0.3 N 11 13 6 7 1024.3 - 0.2
22/01:30am 5.0 1.7 4.3 95 0.3 N 11 15 6 8 1024.3 - 0.2
22/01:00am 5.2 1.8 4.2 93 0.4 N 11 13 6 7 1024.5 - 0.2
22/12:30am 5.8 2.9 4.4 91 0.6 N 9 13 5 7 1024.8 - 0.2
22/12:00am 6.7 3.5 5.0 89 0.7 N 11 15 6 8 1024.8 1025.0 0.2
 
Date/Time
EST
Temp
°C
App
Temp
°C
Dew
Point
Rel
Hum
%
Delta-T
°C
Wind Press
QNH
hPa
Press
MSL
hPa
Rain
since 9 am
mm
Dir
 
Spd
km/h
Gust
km/h
Spd
kts
Gust
kts
21/11:30pm 5.6 2.6 4.2 91 0.6 N 9 11 5 6 1024.8 - 0.2
21/11:00pm 6.1 2.8 4.6 90 0.6 N 11 15 6 8 1024.8 - 0.2
21/10:30pm 5.3 2.4 4.4 94 0.4 N 9 11 5 6 1024.7 - 0.2
21/10:00pm 5.9 3.0 4.9 93 0.4 N 9 11 5 6 1024.8 - 0.2
21/09:30pm 6.2 3.0 5.3 94 0.4 N 11 15 6 8 1024.8 - 0.2
21/09:00pm 6.4 3.6 5.0 91 0.6 N 9 13 5 7 1024.7 1024.9 0.2
21/08:30pm 6.9 4.2 5.8 93 0.5 NE 9 11 5 6 1024.6 - 0.2
21/08:00pm 6.6 4.4 5.4 92 0.5 NE 6 7 3 4 1024.4 - 0.2
21/07:30pm 7.6 5.3 5.7 88 0.9 NE 7 9 4 5 1024.3 - 0.2
21/07:00pm 7.5 5.3 6.0 90 0.7 NE 7 11 4 6 1024.0 - 0.2
21/06:30pm 7.6 5.5 5.7 88 0.9 NE 6 9 3 5 1023.9 - 0.2
21/06:00pm 8.2 6.1 6.0 86 1.0 NE 6 7 3 4 1023.7 1023.9 0.2
21/05:30pm 9.6 7.7 6.7 82 1.4 NE 6 7 3 4 1023.5 - 0.2
21/05:00pm 11.3 10.3 7.4 77 1.9 NE 2 6 1 3 1023.5 - 0.2
21/04:30pm 11.6 9.8 7.1 74 2.2 NE 6 9 3 5 1023.3 - 0.2
21/04:00pm 11.3 9.2 6.8 74 2.1 N 7 11 4 6 1023.4 - 0.2
21/03:30pm 11.8 10.1 7.7 76 2.0 NNE 6 11 3 6 1023.3 - 0.2
21/03:00pm 11.2 9.1 6.5 73 2.2 N 7 11 4 6 1023.1 1023.3 0.2
21/02:30pm 11.1 9.0 6.8 75 2.0 N 7 11 4 6 1023.2 - 0.2
21/02:00pm 10.5 8.0 6.6 77 1.8 N 9 13 5 7 1023.4 - 0.2
21/01:30pm 10.5 7.6 6.5 76 1.9 N 11 17 6 9 1023.8 - 0.2
21/01:00pm 10.2 7.2 6.0 75 1.9 N 11 15 6 8 1024.0 - 0.2
21/12:30pm 10.1 7.2 6.4 78 1.7 N 11 17 6 9 1024.4 - 0.2

Other Formats:

Comma delimited format used in spreadsheet applications
http://www.bom.gov.au/fwo/IDV60801/IDV60801.94828.axf

JavaScript Object Notation format (JSON) in row-major order
http://www.bom.gov.au/fwo/IDV60801/IDV60801.94828.json